sensor_id;sensor_type;location;lat;lon;timestamp;P1;durP1;ratioP1;P2;durP2;ratioP2
45909;SDS011;31622;55.416;37.840;2022-07-22T00:00:02;1.98;;;1.00;;
45909;SDS011;31622;55.416;37.840;2022-07-22T00:02:30;3.60;;;1.10;;
45909;SDS011;31622;55.416;37.840;2022-07-22T00:04:55;2.55;;;1.00;;
45909;SDS011;31622;55.416;37.840;2022-07-22T00:07:21;2.53;;;0.88;;
45909;SDS011;31622;55.416;37.840;2022-07-22T00:09:47;2.72;;;1.05;;
45909;SDS011;31622;55.416;37.840;2022-07-22T00:12:12;3.17;;;1.20;;
45909;SDS011;31622;55.416;37.840;2022-07-22T00:14:38;2.75;;;1.00;;
45909;SDS011;31622;55.416;37.840;2022-07-22T00:17:04;3.78;;;1.30;;
45909;SDS011;31622;55.416;37.840;2022-07-22T00:19:30;1.90;;;0.90;;
45909;SDS011;31622;55.416;37.840;2022-07-22T00:21:55;2.05;;;1.00;;
45909;SDS011;31622;55.416;37.840;2022-07-22T00:24:21;3.38;;;1.13;;
45909;SDS011;31622;55.416;37.840;2022-07-22T00:26:46;1.92;;;1.27;;
45909;SDS011;31622;55.416;37.840;2022-07-22T00:29:12;4.15;;;1.10;;
45909;SDS011;31622;55.416;37.840;2022-07-22T00:31:38;10.68;;;1.50;;
45909;SDS011;31622;55.416;37.840;2022-07-22T00:34:04;6.57;;;1.80;;
45909;SDS011;31622;55.416;37.840;2022-07-22T00:36:29;4.70;;;1.27;;
45909;SDS011;31622;55.416;37.840;2022-07-22T00:38:55;4.53;;;1.20;;
45909;SDS011;31622;55.416;37.840;2022-07-22T00:41:21;2.28;;;0.90;;
45909;SDS011;31622;55.416;37.840;2022-07-22T00:46:26;4.22;;;0.80;;
45909;SDS011;31622;55.416;37.840;2022-07-22T00:48:52;3.10;;;1.25;;
45909;SDS011;31622;55.416;37.840;2022-07-22T00:51:19;1.77;;;1.02;;
45909;SDS011;31622;55.416;37.840;2022-07-22T00:53:45;2.70;;;0.95;;
45909;SDS011;31622;55.416;37.840;2022-07-22T00:56:11;4.28;;;1.05;;
45909;SDS011;31622;55.416;37.840;2022-07-22T00:58:37;3.08;;;1.10;;
45909;SDS011;31622;55.416;37.840;2022-07-22T01:01:03;5.07;;;1.27;;
45909;SDS011;31622;55.416;37.840;2022-07-22T01:03:29;2.67;;;1.23;;
45909;SDS011;31622;55.416;37.840;2022-07-22T01:05:55;3.55;;;1.00;;
45909;SDS011;31622;55.416;37.840;2022-07-22T01:08:21;1.52;;;1.00;;
45909;SDS011;31622;55.416;37.840;2022-07-22T01:10:47;3.47;;;1.30;;
45909;SDS011;31622;55.416;37.840;2022-07-22T01:13:13;2.58;;;1.10;;
45909;SDS011;31622;55.416;37.840;2022-07-22T01:15:38;4.47;;;1.00;;
45909;SDS011;31622;55.416;37.840;2022-07-22T01:18:04;1.67;;;1.17;;
45909;SDS011;31622;55.416;37.840;2022-07-22T01:20:30;3.08;;;0.93;;
45909;SDS011;31622;55.416;37.840;2022-07-22T01:22:56;3.58;;;1.00;;
45909;SDS011;31622;55.416;37.840;2022-07-22T01:25:22;1.63;;;1.10;;
45909;SDS011;31622;55.416;37.840;2022-07-22T01:27:48;1.20;;;0.75;;
45909;SDS011;31622;55.416;37.840;2022-07-22T01:30:13;3.10;;;0.90;;
45909;SDS011;31622;55.416;37.840;2022-07-22T01:32:39;4.00;;;1.10;;
45909;SDS011;31622;55.416;37.840;2022-07-22T01:35:05;2.25;;;1.15;;
45909;SDS011;31622;55.416;37.840;2022-07-22T01:37:32;1.85;;;1.10;;
45909;SDS011;31622;55.416;37.840;2022-07-22T01:39:59;4.25;;;1.17;;
45909;SDS011;31622;55.416;37.840;2022-07-22T01:42:25;1.88;;;1.00;;
45909;SDS011;31622;55.416;37.840;2022-07-22T01:44:51;3.72;;;1.05;;
45909;SDS011;31622;55.416;37.840;2022-07-22T01:47:17;3.15;;;0.85;;
45909;SDS011;31622;55.416;37.840;2022-07-22T01:49:43;1.75;;;1.13;;
45909;SDS011;31622;55.416;37.840;2022-07-22T01:52:09;2.33;;;1.38;;
45909;SDS011;31622;55.416;37.840;2022-07-22T01:54:35;1.40;;;0.85;;
45909;SDS011;31622;55.416;37.840;2022-07-22T01:57:01;2.08;;;1.02;;
45909;SDS011;31622;55.416;37.840;2022-07-22T01:59:28;2.30;;;1.10;;
45909;SDS011;31622;55.416;37.840;2022-07-22T02:01:54;5.70;;;1.00;;
45909;SDS011;31622;55.416;37.840;2022-07-22T02:04:20;3.40;;;1.00;;
45909;SDS011;31622;55.416;37.840;2022-07-22T02:06:45;4.05;;;1.90;;
45909;SDS011;31622;55.416;37.840;2022-07-22T02:09:11;2.30;;;0.80;;
45909;SDS011;31622;55.416;37.840;2022-07-22T02:11:43;2.23;;;0.97;;
45909;SDS011;31622;55.416;37.840;2022-07-22T02:14:10;3.22;;;1.67;;
45909;SDS011;31622;55.416;37.840;2022-07-22T02:16:36;4.55;;;1.33;;
45909;SDS011;31622;55.416;37.840;2022-07-22T02:19:04;2.83;;;1.00;;
45909;SDS011;31622;55.416;37.840;2022-07-22T02:21:30;1.70;;;0.90;;
45909;SDS011;31622;55.416;37.840;2022-07-22T02:23:59;1.58;;;0.88;;
45909;SDS011;31622;55.416;37.840;2022-07-22T02:26:25;3.55;;;1.10;;
45909;SDS011;31622;55.416;37.840;2022-07-22T02:28:50;2.05;;;0.82;;
45909;SDS011;31622;55.416;37.840;2022-07-22T02:31:16;2.38;;;0.90;;
45909;SDS011;31622;55.416;37.840;2022-07-22T02:33:42;4.25;;;0.95;;
45909;SDS011;31622;55.416;37.840;2022-07-22T02:36:08;1.23;;;0.90;;
45909;SDS011;31622;55.416;37.840;2022-07-22T02:38:35;1.85;;;1.00;;
45909;SDS011;31622;55.416;37.840;2022-07-22T02:41:01;1.67;;;0.93;;
45909;SDS011;31622;55.416;37.840;2022-07-22T02:43:26;1.70;;;1.00;;
45909;SDS011;31622;55.416;37.840;2022-07-22T02:45:53;2.65;;;0.90;;
45909;SDS011;31622;55.416;37.840;2022-07-22T02:48:19;1.65;;;1.00;;
45909;SDS011;31622;55.416;37.840;2022-07-22T02:50:45;2.85;;;1.10;;
45909;SDS011;31622;55.416;37.840;2022-07-22T02:53:15;1.65;;;1.10;;
45909;SDS011;31622;55.416;37.840;2022-07-22T02:55:40;2.17;;;0.85;;
45909;SDS011;31622;55.416;37.840;2022-07-22T02:58:07;1.40;;;0.85;;
45909;SDS011;31622;55.416;37.840;2022-07-22T03:00:33;1.67;;;0.95;;
45909;SDS011;31622;55.416;37.840;2022-07-22T03:02:59;2.15;;;0.95;;
45909;SDS011;31622;55.416;37.840;2022-07-22T03:05:25;3.47;;;1.10;;
45909;SDS011;31622;55.416;37.840;2022-07-22T03:07:59;1.85;;;1.00;;
45909;SDS011;31622;55.416;37.840;2022-07-22T03:10:25;1.65;;;1.00;;
45909;SDS011;31622;55.416;37.840;2022-07-22T03:12:51;1.50;;;0.90;;
45909;SDS011;31622;55.416;37.840;2022-07-22T03:15:16;2.38;;;1.20;;
45909;SDS011;31622;55.416;37.840;2022-07-22T03:17:42;1.23;;;0.80;;
45909;SDS011;31622;55.416;37.840;2022-07-22T03:20:09;1.83;;;0.90;;
45909;SDS011;31622;55.416;37.840;2022-07-22T03:22:35;1.70;;;1.00;;
45909;SDS011;31622;55.416;37.840;2022-07-22T03:25:02;1.55;;;0.80;;
45909;SDS011;31622;55.416;37.840;2022-07-22T03:27:28;3.08;;;0.98;;
45909;SDS011;31622;55.416;37.840;2022-07-22T03:29:54;1.25;;;0.90;;
45909;SDS011;31622;55.416;37.840;2022-07-22T03:32:20;2.20;;;1.17;;
45909;SDS011;31622;55.416;37.840;2022-07-22T03:34:47;1.92;;;1.13;;
45909;SDS011;31622;55.416;37.840;2022-07-22T03:37:13;2.75;;;1.10;;
45909;SDS011;31622;55.416;37.840;2022-07-22T03:39:41;5.75;;;1.02;;
45909;SDS011;31622;55.416;37.840;2022-07-22T03:42:06;2.65;;;1.25;;
45909;SDS011;31622;55.416;37.840;2022-07-22T03:44:39;2.45;;;1.02;;
45909;SDS011;31622;55.416;37.840;2022-07-22T03:47:05;6.22;;;1.08;;
45909;SDS011;31622;55.416;37.840;2022-07-22T03:49:31;2.97;;;1.30;;
45909;SDS011;31622;55.416;37.840;2022-07-22T03:51:57;2.42;;;1.20;;
45909;SDS011;31622;55.416;37.840;2022-07-22T03:54:24;1.52;;;1.02;;
45909;SDS011;31622;55.416;37.840;2022-07-22T03:56:50;2.58;;;1.35;;
45909;SDS011;31622;55.416;37.840;2022-07-22T03:59:16;2.38;;;1.17;;
45909;SDS011;31622;55.416;37.840;2022-07-22T04:01:41;1.95;;;1.00;;
45909;SDS011;31622;55.416;37.840;2022-07-22T04:04:09;3.10;;;1.30;;
45909;SDS011;31622;55.416;37.840;2022-07-22T04:06:39;1.73;;;1.13;;
45909;SDS011;31622;55.416;37.840;2022-07-22T04:09:25;1.50;;;1.05;;
45909;SDS011;31622;55.416;37.840;2022-07-22T04:11:51;3.17;;;1.10;;
45909;SDS011;31622;55.416;37.840;2022-07-22T04:14:17;2.95;;;1.20;;
45909;SDS011;31622;55.416;37.840;2022-07-22T04:16:44;2.05;;;1.23;;
45909;SDS011;31622;55.416;37.840;2022-07-22T04:19:10;2.70;;;1.00;;
45909;SDS011;31622;55.416;37.840;2022-07-22T04:21:51;2.13;;;1.20;;
45909;SDS011;31622;55.416;37.840;2022-07-22T04:24:19;2.75;;;1.10;;
45909;SDS011;31622;55.416;37.840;2022-07-22T04:26:48;2.08;;;1.10;;
45909;SDS011;31622;55.416;37.840;2022-07-22T04:29:14;3.25;;;1.23;;
45909;SDS011;31622;55.416;37.840;2022-07-22T04:31:40;2.88;;;1.10;;
45909;SDS011;31622;55.416;37.840;2022-07-22T04:34:12;3.70;;;1.30;;
45909;SDS011;31622;55.416;37.840;2022-07-22T04:36:38;1.77;;;1.13;;
45909;SDS011;31622;55.416;37.840;2022-07-22T04:39:04;3.00;;;1.38;;
45909;SDS011;31622;55.416;37.840;2022-07-22T04:41:31;2.65;;;1.40;;
45909;SDS011;31622;55.416;37.840;2022-07-22T04:43:57;2.25;;;1.38;;
45909;SDS011;31622;55.416;37.840;2022-07-22T04:46:26;3.75;;;1.80;;
45909;SDS011;31622;55.416;37.840;2022-07-22T04:48:53;15.82;;;5.93;;
45909;SDS011;31622;55.416;37.840;2022-07-22T04:51:19;25.75;;;9.63;;
45909;SDS011;31622;55.416;37.840;2022-07-22T04:53:47;15.98;;;6.80;;
45909;SDS011;31622;55.416;37.840;2022-07-22T04:56:15;16.63;;;6.57;;
45909;SDS011;31622;55.416;37.840;2022-07-22T04:58:40;16.65;;;5.60;;
45909;SDS011;31622;55.416;37.840;2022-07-22T05:01:06;12.32;;;4.60;;
45909;SDS011;31622;55.416;37.840;2022-07-22T05:03:32;10.60;;;3.85;;
45909;SDS011;31622;55.416;37.840;2022-07-22T05:05:58;5.82;;;3.28;;
45909;SDS011;31622;55.416;37.840;2022-07-22T05:08:31;5.68;;;3.03;;
45909;SDS011;31622;55.416;37.840;2022-07-22T05:10:57;10.65;;;3.38;;
45909;SDS011;31622;55.416;37.840;2022-07-22T05:13:23;6.57;;;2.30;;
45909;SDS011;31622;55.416;37.840;2022-07-22T05:15:49;4.57;;;2.08;;
45909;SDS011;31622;55.416;37.840;2022-07-22T05:18:14;5.32;;;2.17;;
45909;SDS011;31622;55.416;37.840;2022-07-22T05:20:41;6.60;;;1.98;;
45909;SDS011;31622;55.416;37.840;2022-07-22T05:23:07;5.88;;;2.20;;
45909;SDS011;31622;55.416;37.840;2022-07-22T05:25:35;6.53;;;2.05;;
45909;SDS011;31622;55.416;37.840;2022-07-22T05:28:00;4.13;;;1.60;;
45909;SDS011;31622;55.416;37.840;2022-07-22T05:30:39;10.18;;;2.28;;
45909;SDS011;31622;55.416;37.840;2022-07-22T05:33:06;4.47;;;1.40;;
45909;SDS011;31622;55.416;37.840;2022-07-22T05:36:01;3.63;;;1.80;;
45909;SDS011;31622;55.416;37.840;2022-07-22T05:38:37;5.00;;;1.30;;
45909;SDS011;31622;55.416;37.840;2022-07-22T05:41:04;2.50;;;1.40;;
45909;SDS011;31622;55.416;37.840;2022-07-22T05:43:30;5.78;;;1.50;;
45909;SDS011;31622;55.416;37.840;2022-07-22T05:45:56;2.40;;;1.35;;
45909;SDS011;31622;55.416;37.840;2022-07-22T05:48:21;3.08;;;1.52;;
45909;SDS011;31622;55.416;37.840;2022-07-22T05:50:47;2.80;;;1.42;;
45909;SDS011;31622;55.416;37.840;2022-07-22T05:53:13;2.15;;;1.30;;
45909;SDS011;31622;55.416;37.840;2022-07-22T05:55:39;7.15;;;1.95;;
45909;SDS011;31622;55.416;37.840;2022-07-22T05:58:06;3.95;;;1.20;;
45909;SDS011;31622;55.416;37.840;2022-07-22T06:00:32;3.53;;;1.02;;
45909;SDS011;31622;55.416;37.840;2022-07-22T06:02:58;2.95;;;0.98;;
45909;SDS011;31622;55.416;37.840;2022-07-22T06:05:24;1.98;;;1.00;;
45909;SDS011;31622;55.416;37.840;2022-07-22T06:07:50;2.38;;;1.13;;
45909;SDS011;31622;55.416;37.840;2022-07-22T06:10:28;4.05;;;1.20;;
45909;SDS011;31622;55.416;37.840;2022-07-22T06:12:54;3.88;;;1.92;;
45909;SDS011;31622;55.416;37.840;2022-07-22T06:15:19;3.35;;;1.30;;
45909;SDS011;31622;55.416;37.840;2022-07-22T06:17:46;5.30;;;1.23;;
45909;SDS011;31622;55.416;37.840;2022-07-22T06:20:12;1.70;;;1.00;;
45909;SDS011;31622;55.416;37.840;2022-07-22T06:22:41;1.90;;;1.10;;
45909;SDS011;31622;55.416;37.840;2022-07-22T06:25:07;6.40;;;1.45;;
45909;SDS011;31622;55.416;37.840;2022-07-22T06:27:33;3.65;;;1.20;;
45909;SDS011;31622;55.416;37.840;2022-07-22T06:30:00;4.28;;;1.70;;
45909;SDS011;31622;55.416;37.840;2022-07-22T06:32:26;5.18;;;1.40;;
45909;SDS011;31622;55.416;37.840;2022-07-22T06:34:51;5.40;;;1.48;;
45909;SDS011;31622;55.416;37.840;2022-07-22T06:37:17;4.63;;;1.48;;
45909;SDS011;31622;55.416;37.840;2022-07-22T06:39:42;3.70;;;1.58;;
45909;SDS011;31622;55.416;37.840;2022-07-22T06:42:21;4.00;;;1.38;;
45909;SDS011;31622;55.416;37.840;2022-07-22T06:45:10;4.60;;;1.20;;
45909;SDS011;31622;55.416;37.840;2022-07-22T06:48:02;3.30;;;1.52;;
45909;SDS011;31622;55.416;37.840;2022-07-22T06:50:29;2.42;;;1.30;;
45909;SDS011;31622;55.416;37.840;2022-07-22T06:52:55;3.08;;;1.60;;
45909;SDS011;31622;55.416;37.840;2022-07-22T06:55:22;2.40;;;1.30;;
45909;SDS011;31622;55.416;37.840;2022-07-22T06:57:58;2.05;;;1.38;;
45909;SDS011;31622;55.416;37.840;2022-07-22T07:00:24;4.93;;;1.50;;
45909;SDS011;31622;55.416;37.840;2022-07-22T07:03:16;2.38;;;1.50;;
45909;SDS011;31622;55.416;37.840;2022-07-22T07:05:42;2.00;;;1.50;;
45909;SDS011;31622;55.416;37.840;2022-07-22T07:08:08;3.47;;;1.08;;
45909;SDS011;31622;55.416;37.840;2022-07-22T07:10:35;1.88;;;1.27;;
45909;SDS011;31622;55.416;37.840;2022-07-22T07:13:06;3.10;;;1.17;;
45909;SDS011;31622;55.416;37.840;2022-07-22T07:15:40;2.85;;;1.25;;
45909;SDS011;31622;55.416;37.840;2022-07-22T07:18:07;1.98;;;1.30;;
45909;SDS011;31622;55.416;37.840;2022-07-22T07:20:33;1.83;;;1.13;;
45909;SDS011;31622;55.416;37.840;2022-07-22T07:23:02;2.53;;;1.30;;
45909;SDS011;31622;55.416;37.840;2022-07-22T07:25:30;2.30;;;1.13;;
45909;SDS011;31622;55.416;37.840;2022-07-22T07:27:56;3.15;;;1.00;;
45909;SDS011;31622;55.416;37.840;2022-07-22T07:30:44;2.63;;;1.08;;
45909;SDS011;31622;55.416;37.840;2022-07-22T07:33:10;2.38;;;1.20;;
45909;SDS011;31622;55.416;37.840;2022-07-22T07:35:37;2.90;;;1.10;;
45909;SDS011;31622;55.416;37.840;2022-07-22T07:38:03;2.15;;;1.13;;
45909;SDS011;31622;55.416;37.840;2022-07-22T07:40:30;1.42;;;0.95;;
45909;SDS011;31622;55.416;37.840;2022-07-22T07:42:56;3.40;;;1.20;;
45909;SDS011;31622;55.416;37.840;2022-07-22T07:45:22;2.03;;;0.90;;
45909;SDS011;31622;55.416;37.840;2022-07-22T07:47:47;1.67;;;1.02;;
45909;SDS011;31622;55.416;37.840;2022-07-22T07:50:14;3.30;;;1.10;;
45909;SDS011;31622;55.416;37.840;2022-07-22T07:52:40;5.35;;;1.10;;
45909;SDS011;31622;55.416;37.840;2022-07-22T07:55:07;5.20;;;1.60;;
45909;SDS011;31622;55.416;37.840;2022-07-22T07:57:35;7.20;;;2.20;;
45909;SDS011;31622;55.416;37.840;2022-07-22T08:00:06;2.85;;;2.05;;
45909;SDS011;31622;55.416;37.840;2022-07-22T08:02:39;3.42;;;1.75;;
45909;SDS011;31622;55.416;37.840;2022-07-22T08:05:06;3.20;;;1.40;;
45909;SDS011;31622;55.416;37.840;2022-07-22T08:07:33;5.57;;;1.50;;
45909;SDS011;31622;55.416;37.840;2022-07-22T08:09:59;3.92;;;1.20;;
45909;SDS011;31622;55.416;37.840;2022-07-22T08:12:47;3.33;;;1.20;;
45909;SDS011;31622;55.416;37.840;2022-07-22T08:15:33;7.30;;;1.80;;
45909;SDS011;31622;55.416;37.840;2022-07-22T08:18:05;3.65;;;1.08;;
45909;SDS011;31622;55.416;37.840;2022-07-22T08:20:30;3.17;;;1.20;;
45909;SDS011;31622;55.416;37.840;2022-07-22T08:22:56;1.98;;;1.23;;
45909;SDS011;31622;55.416;37.840;2022-07-22T08:25:24;1.58;;;0.98;;
45909;SDS011;31622;55.416;37.840;2022-07-22T08:27:51;2.88;;;1.40;;
45909;SDS011;31622;55.416;37.840;2022-07-22T08:30:17;3.45;;;1.15;;
45909;SDS011;31622;55.416;37.840;2022-07-22T08:32:43;4.10;;;1.13;;
45909;SDS011;31622;55.416;37.840;2022-07-22T08:35:09;1.92;;;0.90;;
45909;SDS011;31622;55.416;37.840;2022-07-22T08:37:36;1.63;;;1.10;;
45909;SDS011;31622;55.416;37.840;2022-07-22T08:40:02;3.33;;;1.20;;
45909;SDS011;31622;55.416;37.840;2022-07-22T08:42:29;4.53;;;1.08;;
45909;SDS011;31622;55.416;37.840;2022-07-22T08:44:55;4.15;;;0.95;;
45909;SDS011;31622;55.416;37.840;2022-07-22T08:47:22;1.67;;;1.00;;
45909;SDS011;31622;55.416;37.840;2022-07-22T08:50:04;2.15;;;0.88;;
45909;SDS011;31622;55.416;37.840;2022-07-22T08:52:53;2.45;;;0.90;;
45909;SDS011;31622;55.416;37.840;2022-07-22T08:55:18;1.85;;;1.00;;
45909;SDS011;31622;55.416;37.840;2022-07-22T08:57:47;2.05;;;0.77;;
45909;SDS011;31622;55.416;37.840;2022-07-22T09:00:15;2.47;;;0.90;;
45909;SDS011;31622;55.416;37.840;2022-07-22T09:02:43;2.90;;;0.98;;
45909;SDS011;31622;55.416;37.840;2022-07-22T09:05:11;2.65;;;1.17;;
45909;SDS011;31622;55.416;37.840;2022-07-22T09:07:43;6.47;;;1.70;;
45909;SDS011;31622;55.416;37.840;2022-07-22T09:10:19;4.85;;;1.60;;
45909;SDS011;31622;55.416;37.840;2022-07-22T09:13:07;3.95;;;1.60;;
45909;SDS011;31622;55.416;37.840;2022-07-22T09:15:49;2.90;;;1.80;;
45909;SDS011;31622;55.416;37.840;2022-07-22T09:18:48;3.25;;;1.90;;
45909;SDS011;31622;55.416;37.840;2022-07-22T09:21:36;5.30;;;2.00;;
45909;SDS011;31622;55.416;37.840;2022-07-22T09:26:54;4.10;;;1.83;;
45909;SDS011;31622;55.416;37.840;2022-07-22T09:29:34;3.83;;;1.40;;
45909;SDS011;31622;55.416;37.840;2022-07-22T09:32:15;2.15;;;1.15;;
45909;SDS011;31622;55.416;37.840;2022-07-22T09:35:04;4.07;;;1.45;;
45909;SDS011;31622;55.416;37.840;2022-07-22T09:37:53;4.75;;;1.38;;
45909;SDS011;31622;55.416;37.840;2022-07-22T09:40:22;3.30;;;1.30;;
45909;SDS011;31622;55.416;37.840;2022-07-22T09:42:50;4.32;;;1.98;;
45909;SDS011;31622;55.416;37.840;2022-07-22T09:45:19;2.17;;;1.08;;
45909;SDS011;31622;55.416;37.840;2022-07-22T09:47:46;2.92;;;1.00;;
45909;SDS011;31622;55.416;37.840;2022-07-22T09:50:31;2.85;;;1.40;;
45909;SDS011;31622;55.416;37.840;2022-07-22T09:53:26;2.65;;;1.08;;
45909;SDS011;31622;55.416;37.840;2022-07-22T09:56:09;11.02;;;1.70;;
45909;SDS011;31622;55.416;37.840;2022-07-22T09:58:37;3.97;;;1.55;;
45909;SDS011;31622;55.416;37.840;2022-07-22T10:03:35;4.60;;;1.67;;
45909;SDS011;31622;55.416;37.840;2022-07-22T10:06:03;2.53;;;1.27;;
45909;SDS011;31622;55.416;37.840;2022-07-22T10:08:31;4.70;;;1.50;;
45909;SDS011;31622;55.416;37.840;2022-07-22T10:11:01;2.92;;;1.27;;
45909;SDS011;31622;55.416;37.840;2022-07-22T10:13:30;2.60;;;1.10;;
45909;SDS011;31622;55.416;37.840;2022-07-22T10:15:57;2.63;;;1.00;;
45909;SDS011;31622;55.416;37.840;2022-07-22T10:18:23;3.67;;;1.20;;
45909;SDS011;31622;55.416;37.840;2022-07-22T10:21:05;2.28;;;1.08;;
45909;SDS011;31622;55.416;37.840;2022-07-22T10:23:33;2.20;;;1.13;;
45909;SDS011;31622;55.416;37.840;2022-07-22T10:26:00;1.98;;;1.30;;
45909;SDS011;31622;55.416;37.840;2022-07-22T10:28:32;2.38;;;1.17;;
45909;SDS011;31622;55.416;37.840;2022-07-22T10:31:34;1.83;;;1.27;;
45909;SDS011;31622;55.416;37.840;2022-07-22T10:33:54;3.47;;;1.65;;
45909;SDS011;31622;55.416;37.840;2022-07-22T10:36:36;19.00;;;5.88;;
45909;SDS011;31622;55.416;37.840;2022-07-22T10:39:11;11.38;;;3.80;;
45909;SDS011;31622;55.416;37.840;2022-07-22T10:41:40;21.00;;;6.72;;
45909;SDS011;31622;55.416;37.840;2022-07-22T10:44:07;18.48;;;6.03;;
45909;SDS011;31622;55.416;37.840;2022-07-22T10:46:50;20.88;;;4.38;;
45909;SDS011;31622;55.416;37.840;2022-07-22T10:49:21;11.57;;;3.58;;
45909;SDS011;31622;55.416;37.840;2022-07-22T10:54:33;9.30;;;3.47;;
45909;SDS011;31622;55.416;37.840;2022-07-22T10:57:02;11.70;;;3.47;;
45909;SDS011;31622;55.416;37.840;2022-07-22T10:59:27;8.10;;;3.50;;
45909;SDS011;31622;55.416;37.840;2022-07-22T11:01:53;8.07;;;2.63;;
45909;SDS011;31622;55.416;37.840;2022-07-22T11:04:20;7.10;;;2.88;;
45909;SDS011;31622;55.416;37.840;2022-07-22T11:06:47;9.38;;;2.72;;
45909;SDS011;31622;55.416;37.840;2022-07-22T11:09:17;9.32;;;2.53;;
45909;SDS011;31622;55.416;37.840;2022-07-22T11:11:54;5.30;;;2.22;;
45909;SDS011;31622;55.416;37.840;2022-07-22T11:16:53;4.70;;;1.70;;
45909;SDS011;31622;55.416;37.840;2022-07-22T11:19:21;6.10;;;1.80;;
45909;SDS011;31622;55.416;37.840;2022-07-22T11:21:49;5.55;;;1.95;;
45909;SDS011;31622;55.416;37.840;2022-07-22T11:24:16;3.67;;;1.73;;
45909;SDS011;31622;55.416;37.840;2022-07-22T11:26:45;5.55;;;1.85;;
45909;SDS011;31622;55.416;37.840;2022-07-22T11:29:16;6.90;;;1.80;;
45909;SDS011;31622;55.416;37.840;2022-07-22T11:34:10;7.40;;;1.67;;
45909;SDS011;31622;55.416;37.840;2022-07-22T11:36:38;13.95;;;2.38;;
45909;SDS011;31622;55.416;37.840;2022-07-22T11:39:06;4.80;;;1.48;;
45909;SDS011;31622;55.416;37.840;2022-07-22T11:41:33;5.60;;;1.75;;
45909;SDS011;31622;55.416;37.840;2022-07-22T11:43:59;5.57;;;1.60;;
45909;SDS011;31622;55.416;37.840;2022-07-22T11:46:26;5.70;;;1.58;;
45909;SDS011;31622;55.416;37.840;2022-07-22T11:48:52;8.88;;;1.67;;
45909;SDS011;31622;55.416;37.840;2022-07-22T11:51:19;6.97;;;1.67;;
45909;SDS011;31622;55.416;37.840;2022-07-22T11:53:44;4.00;;;1.92;;
45909;SDS011;31622;55.416;37.840;2022-07-22T11:56:10;4.32;;;1.52;;
45909;SDS011;31622;55.416;37.840;2022-07-22T11:58:43;4.63;;;1.48;;
45909;SDS011;31622;55.416;37.840;2022-07-22T12:01:14;4.07;;;1.75;;
45909;SDS011;31622;55.416;37.840;2022-07-22T12:03:44;8.30;;;1.63;;
45909;SDS011;31622;55.416;37.840;2022-07-22T12:06:12;2.35;;;1.55;;
45909;SDS011;31622;55.416;37.840;2022-07-22T12:08:42;4.53;;;1.60;;
45909;SDS011;31622;55.416;37.840;2022-07-22T12:11:09;4.82;;;2.25;;
45909;SDS011;31622;55.416;37.840;2022-07-22T12:13:38;5.90;;;2.20;;
45909;SDS011;31622;55.416;37.840;2022-07-22T12:16:19;4.70;;;2.05;;
45909;SDS011;31622;55.416;37.840;2022-07-22T12:19:03;4.35;;;1.90;;
45909;SDS011;31622;55.416;37.840;2022-07-22T12:21:34;3.47;;;2.25;;
45909;SDS011;31622;55.416;37.840;2022-07-22T12:26:36;9.75;;;2.53;;
45909;SDS011;31622;55.416;37.840;2022-07-22T12:29:16;4.65;;;1.98;;
45909;SDS011;31622;55.416;37.840;2022-07-22T12:31:56;2.67;;;1.75;;
45909;SDS011;31622;55.416;37.840;2022-07-22T12:34:40;3.40;;;1.90;;
45909;SDS011;31622;55.416;37.840;2022-07-22T12:37:20;5.03;;;1.40;;
45909;SDS011;31622;55.416;37.840;2022-07-22T12:40:06;2.80;;;1.50;;
45909;SDS011;31622;55.416;37.840;2022-07-22T12:42:41;3.30;;;1.83;;
45909;SDS011;31622;55.416;37.840;2022-07-22T12:45:09;4.00;;;1.80;;
45909;SDS011;31622;55.416;37.840;2022-07-22T12:52:48;3.47;;;1.83;;
45909;SDS011;31622;55.416;37.840;2022-07-22T12:55:15;3.38;;;1.80;;
45909;SDS011;31622;55.416;37.840;2022-07-22T12:57:41;9.65;;;2.85;;
45909;SDS011;31622;55.416;37.840;2022-07-22T13:00:08;13.25;;;3.30;;
45909;SDS011;31622;55.416;37.840;2022-07-22T13:02:34;11.23;;;3.60;;
45909;SDS011;31622;55.416;37.840;2022-07-22T13:05:00;13.00;;;6.13;;
45909;SDS011;31622;55.416;37.840;2022-07-22T13:07:25;35.20;;;12.57;;
45909;SDS011;31622;55.416;37.840;2022-07-22T13:09:51;38.55;;;15.23;;
45909;SDS011;31622;55.416;37.840;2022-07-22T13:12:17;29.45;;;12.20;;
45909;SDS011;31622;55.416;37.840;2022-07-22T13:14:42;22.02;;;10.32;;
45909;SDS011;31622;55.416;37.840;2022-07-22T13:17:08;24.42;;;10.18;;
45909;SDS011;31622;55.416;37.840;2022-07-22T13:19:33;23.50;;;11.25;;
45909;SDS011;31622;55.416;37.840;2022-07-22T13:21:59;39.42;;;13.55;;
45909;SDS011;31622;55.416;37.840;2022-07-22T13:24:25;29.60;;;11.13;;
45909;SDS011;31622;55.416;37.840;2022-07-22T13:26:50;27.80;;;12.43;;
45909;SDS011;31622;55.416;37.840;2022-07-22T13:29:16;31.40;;;12.45;;
45909;SDS011;31622;55.416;37.840;2022-07-22T13:31:42;28.65;;;10.35;;
45909;SDS011;31622;55.416;37.840;2022-07-22T13:34:08;25.40;;;9.85;;
45909;SDS011;31622;55.416;37.840;2022-07-22T13:36:33;20.20;;;8.52;;
45909;SDS011;31622;55.416;37.840;2022-07-22T13:38:59;25.25;;;10.43;;
45909;SDS011;31622;55.416;37.840;2022-07-22T13:41:25;20.90;;;8.68;;
45909;SDS011;31622;55.416;37.840;2022-07-22T13:43:51;18.08;;;8.40;;
45909;SDS011;31622;55.416;37.840;2022-07-22T13:46:18;24.20;;;9.85;;
45909;SDS011;31622;55.416;37.840;2022-07-22T13:48:44;20.35;;;9.10;;
45909;SDS011;31622;55.416;37.840;2022-07-22T13:51:10;30.50;;;8.95;;
45909;SDS011;31622;55.416;37.840;2022-07-22T13:53:35;16.85;;;6.82;;
45909;SDS011;31622;55.416;37.840;2022-07-22T13:56:02;19.42;;;8.30;;
45909;SDS011;31622;55.416;37.840;2022-07-22T13:58:28;15.45;;;6.68;;
45909;SDS011;31622;55.416;37.840;2022-07-22T14:00:55;25.17;;;7.95;;
45909;SDS011;31622;55.416;37.840;2022-07-22T14:03:20;15.07;;;6.65;;
45909;SDS011;31622;55.416;37.840;2022-07-22T14:05:46;17.77;;;6.30;;
45909;SDS011;31622;55.416;37.840;2022-07-22T14:08:11;17.20;;;6.80;;
45909;SDS011;31622;55.416;37.840;2022-07-22T14:10:37;16.02;;;6.30;;
45909;SDS011;31622;55.416;37.840;2022-07-22T14:13:03;11.27;;;5.40;;
45909;SDS011;31622;55.416;37.840;2022-07-22T14:15:29;10.00;;;5.22;;
45909;SDS011;31622;55.416;37.840;2022-07-22T14:17:55;8.98;;;4.20;;
45909;SDS011;31622;55.416;37.840;2022-07-22T14:20:20;13.75;;;5.22;;
45909;SDS011;31622;55.416;37.840;2022-07-22T14:22:46;10.38;;;4.32;;
45909;SDS011;31622;55.416;37.840;2022-07-22T14:25:12;10.35;;;4.18;;
45909;SDS011;31622;55.416;37.840;2022-07-22T14:27:37;8.93;;;4.10;;
45909;SDS011;31622;55.416;37.840;2022-07-22T14:30:03;9.40;;;4.00;;
45909;SDS011;31622;55.416;37.840;2022-07-22T14:32:29;7.30;;;3.50;;
45909;SDS011;31622;55.416;37.840;2022-07-22T14:34:55;6.00;;;2.72;;
45909;SDS011;31622;55.416;37.840;2022-07-22T14:37:20;8.88;;;4.07;;
45909;SDS011;31622;55.416;37.840;2022-07-22T14:39:47;7.32;;;3.08;;
45909;SDS011;31622;55.416;37.840;2022-07-22T14:42:13;4.57;;;2.70;;
45909;SDS011;31622;55.416;37.840;2022-07-22T14:44:38;6.22;;;3.15;;
45909;SDS011;31622;55.416;37.840;2022-07-22T14:47:04;5.55;;;3.03;;
45909;SDS011;31622;55.416;37.840;2022-07-22T14:49:29;7.47;;;2.63;;
45909;SDS011;31622;55.416;37.840;2022-07-22T14:51:55;6.50;;;2.83;;
45909;SDS011;31622;55.416;37.840;2022-07-22T14:54:21;6.25;;;2.30;;
45909;SDS011;31622;55.416;37.840;2022-07-22T14:56:46;7.10;;;2.70;;
45909;SDS011;31622;55.416;37.840;2022-07-22T14:59:12;6.43;;;2.13;;
45909;SDS011;31622;55.416;37.840;2022-07-22T15:01:38;3.70;;;1.98;;